Time;durP1;ratioP1;P1;durP2;ratioP2;P2;SDS_P1;SDS_P2;PMS_P1;PMS_P2;Temp;Humidity;BMP_temperature;BMP_pressure;BME280_temperature;BME280_humidity;BME280_pressure;Samples;Min_cycle;Max_cycle;Signal;HPM_P1;HPM_P2
2021/10/04 00:00:12;;;;;;;4.30;2.10;;;;;11.10;100698.00;;;;10432549;28;20217;-77
2021/10/04 00:05:15;;;;;;;5.23;2.20;;;;;11.20;100705.00;;;;10432102;28;20611;-76
2021/10/04 00:10:18;;;;;;;6.73;2.17;;;;;11.20;100696.00;;;;10481477;28;20186;-77
2021/10/04 00:15:23;;;;;;;5.90;1.90;;;;;11.30;100712.00;;;;10448233;28;20214;-77
2021/10/04 00:20:26;;;;;;;7.33;2.27;;;;;11.30;100704.00;;;;10447368;28;20273;-77
2021/10/04 00:25:28;;;;;;;5.63;2.03;;;;;11.30;100707.00;;;;10431820;28;20193;-77
2021/10/04 00:30:30;;;;;;;3.80;1.87;;;;;11.20;100729.00;;;;10480925;28;20205;-76
2021/10/04 00:35:32;;;;;;;5.17;2.07;;;;;11.10;100729.00;;;;10472738;28;20222;-77
2021/10/04 00:40:35;;;;;;;3.57;1.67;;;;;11.10;100737.00;;;;10472423;28;20241;-77
2021/10/04 00:45:37;;;;;;;9.27;2.30;;;;;11.00;100763.00;;;;10477363;28;20190;-76
2021/10/04 00:50:39;;;;;;;5.47;1.93;;;;;10.90;100751.00;;;;10400602;28;20538;-77
2021/10/04 00:55:41;;;;;;;5.37;2.13;;;;;10.90;100748.00;;;;10377168;28;20298;-77
2021/10/04 01:00:43;;;;;;;3.93;2.13;;;;;10.90;100745.00;;;;10374852;28;20203;-77
2021/10/04 01:05:45;;;;;;;5.27;2.47;;;;;10.90;100753.00;;;;10380778;28;20191;-77
2021/10/04 01:10:47;;;;;;;5.23;2.40;;;;;10.80;100754.00;;;;10364019;28;20195;-77
2021/10/04 01:15:49;;;;;;;10.37;3.00;;;;;10.70;100757.00;;;;10421349;28;20297;-78
2021/10/04 01:20:53;;;;;;;5.47;2.50;;;;;10.60;100732.00;;;;10388932;28;20187;-77
2021/10/04 01:25:56;;;;;;;5.93;2.43;;;;;10.50;100727.00;;;;10437431;28;20187;-78
2021/10/04 01:30:59;;;;;;;6.93;2.67;;;;;10.50;100721.00;;;;10441777;28;20202;-78
2021/10/04 01:36:01;;;;;;;6.27;2.60;;;;;10.40;100726.00;;;;10446042;28;20264;-78
2021/10/04 01:41:03;;;;;;;5.87;3.00;;;;;10.30;100714.00;;;;10425415;28;20253;-78
2021/10/04 01:46:05;;;;;;;3.80;2.70;;;;;10.30;100718.00;;;;10404158;28;20666;-77
2021/10/04 01:51:07;;;;;;;7.47;2.87;;;;;10.30;100712.00;;;;10428894;28;20233;-78
2021/10/04 01:56:09;;;;;;;4.73;2.73;;;;;10.20;100712.00;;;;10443704;28;20280;-78
2021/10/04 02:01:11;;;;;;;6.17;2.83;;;;;10.20;100702.00;;;;10461124;28;20530;-77
2021/10/04 02:06:12;;;;;;;4.27;2.70;;;;;10.20;100711.00;;;;10460651;28;20190;-77
2021/10/04 02:11:14;;;;;;;4.33;2.23;;;;;10.30;100700.00;;;;10427480;28;20649;-77
2021/10/04 02:16:17;;;;;;;3.90;2.20;;;;;10.40;100697.00;;;;10418860;28;20214;-77
2021/10/04 02:21:19;;;;;;;4.10;2.10;;;;;10.40;100702.00;;;;10423950;28;20205;-78
2021/10/04 02:26:22;;;;;;;3.83;1.70;;;;;10.50;100712.00;;;;10443458;28;20259;-77
2021/10/04 02:31:24;;;;;;;6.93;1.97;;;;;10.50;100720.00;;;;10467388;28;20259;-77
2021/10/04 02:36:25;;;;;;;3.00;1.43;;;;;10.50;100724.00;;;;10518172;28;20217;-78
2021/10/04 02:41:27;;;;;;;3.93;1.57;;;;;10.50;100719.00;;;;10470828;28;20217;-77
2021/10/04 02:46:30;;;;;;;3.73;1.67;;;;;10.50;100735.00;;;;10443058;28;20190;-78
2021/10/04 02:51:32;;;;;;;6.07;1.70;;;;;10.40;100738.00;;;;10400768;28;20210;-77
2021/10/04 02:56:38;;;;;;;2.47;1.60;;;;;10.40;100737.00;;;;10450167;28;20206;-77
2021/10/04 03:01:39;;;;;;;3.53;1.60;;;;;10.40;100736.00;;;;10418568;28;20249;-77
2021/10/04 03:06:41;;;;;;;3.90;1.47;;;;;10.40;100733.00;;;;10433979;28;20195;-77
2021/10/04 03:11:43;;;;;;;4.07;1.67;;;;;10.40;100740.00;;;;10372915;28;20186;-77
2021/10/04 03:16:45;;;;;;;5.60;1.67;;;;;10.40;100747.00;;;;10441613;28;20723;-77
2021/10/04 03:21:47;;;;;;;3.57;1.40;;;;;10.30;100740.00;;;;10425474;28;20197;-77
2021/10/04 03:26:49;;;;;;;4.40;1.33;;;;;10.30;100760.00;;;;10444768;28;20209;-77
2021/10/04 03:31:51;;;;;;;2.80;1.50;;;;;10.20;100764.00;;;;10458959;28;20261;-77
2021/10/04 03:36:54;;;;;;;5.87;1.53;;;;;10.20;100773.00;;;;10424389;28;20601;-78
2021/10/04 03:41:56;;;;;;;2.93;1.17;;;;;10.20;100788.00;;;;10458253;28;20233;-78
2021/10/04 03:46:58;;;;;;;4.53;1.40;;;;;10.20;100794.00;;;;10441137;28;20194;-77
2021/10/04 03:52:01;;;;;;;3.20;1.03;;;;;10.20;100790.00;;;;10424473;28;20202;-77
2021/10/04 03:57:04;;;;;;;2.80;1.70;;;;;10.10;100789.00;;;;10428068;28;20255;-78
2021/10/04 04:02:11;;;;;;;4.53;1.40;;;;;10.00;100795.00;;;;10440794;28;20248;-78
2021/10/04 04:07:14;;;;;;;3.57;1.40;;;;;9.90;100782.00;;;;10474518;28;20190;-78
2021/10/04 04:12:15;;;;;;;4.00;1.90;;;;;9.80;100791.00;;;;10440253;28;20218;-77
2021/10/04 04:17:17;;;;;;;3.97;2.13;;;;;9.80;100797.00;;;;10423279;28;20284;-77
2021/10/04 04:22:19;;;;;;;6.43;1.70;;;;;9.80;100793.00;;;;10440045;28;20221;-77
2021/10/04 04:27:22;;;;;;;6.40;1.83;;;;;9.80;100789.00;;;;10418699;28;20633;-77
2021/10/04 04:32:24;;;;;;;6.13;1.33;;;;;9.80;100804.00;;;;10438702;28;20214;-77
2021/10/04 04:37:26;;;;;;;5.17;1.40;;;;;9.80;100817.00;;;;10431400;28;20673;-77
2021/10/04 04:42:27;;;;;;;6.33;1.33;;;;;9.90;100839.00;;;;10464186;28;20309;-77
2021/10/04 04:47:29;;;;;;;5.17;1.53;;;;;10.00;100817.00;;;;10431144;28;20194;-77
2021/10/04 04:52:31;;;;;;;5.93;2.03;;;;;10.00;100847.00;;;;10446913;28;20597;-77
2021/10/04 04:57:33;;;;;;;5.90;1.47;;;;;10.10;100822.00;;;;10455946;28;20201;-77
2021/10/04 05:02:36;;;;;;;6.77;1.93;;;;;10.10;100843.00;;;;10462257;28;20214;-77
2021/10/04 05:07:38;;;;;;;5.70;1.20;;;;;10.20;100844.00;;;;10422106;28;20190;-77
2021/10/04 05:12:41;;;;;;;7.50;1.10;;;;;10.20;100854.00;;;;10438103;28;20825;-77
2021/10/04 05:17:43;;;;;;;5.23;1.20;;;;;10.20;100858.00;;;;10434592;28;20535;-76
2021/10/04 05:22:44;;;;;;;1.60;1.37;;;;;10.20;100864.00;;;;10429546;28;20237;-77
2021/10/04 05:27:46;;;;;;;4.50;1.17;;;;;10.20;100866.00;;;;10438358;28;20227;-76
2021/10/04 05:32:49;;;;;;;2.23;1.33;;;;;10.10;100869.00;;;;10422563;28;20260;-77
2021/10/04 05:37:51;;;;;;;4.60;1.33;;;;;10.10;100871.00;;;;10428694;28;20650;-77
2021/10/04 05:42:52;;;;;;;5.37;1.43;;;;;10.10;100884.00;;;;10417774;28;20207;-77
2021/10/04 05:47:54;;;;;;;4.17;1.27;;;;;10.10;100882.00;;;;10446121;28;20198;-78
2021/10/04 05:52:56;;;;;;;3.47;1.23;;;;;10.10;100885.00;;;;10423742;28;20223;-77
2021/10/04 05:57:58;;;;;;;1.93;1.10;;;;;10.00;100892.00;;;;10465634;28;20616;-77
2021/10/04 06:03:00;;;;;;;4.87;1.30;;;;;10.00;100890.00;;;;10446113;28;20191;-76
2021/10/04 06:08:03;;;;;;;7.17;1.57;;;;;10.10;100907.00;;;;10430551;28;20182;-77
2021/10/04 06:13:05;;;;;;;4.00;1.20;;;;;10.10;100910.00;;;;10459642;28;20206;-77
2021/10/04 06:18:11;;;;;;;2.93;1.70;;;;;10.10;100907.00;;;;10459917;28;20648;-77
2021/10/04 06:23:13;;;;;;;7.50;1.60;;;;;10.10;100926.00;;;;10455052;28;20714;-77
2021/10/04 06:28:15;;;;;;;4.83;1.70;;;;;10.10;100919.00;;;;10443941;28;20201;-78
2021/10/04 06:33:17;;;;;;;4.20;1.40;;;;;10.10;100928.00;;;;10461848;28;20280;-77
2021/10/04 06:38:19;;;;;;;5.50;2.13;;;;;10.20;100937.00;;;;10441095;28;20205;-77
2021/10/04 06:43:21;;;;;;;6.13;1.90;;;;;10.20;100946.00;;;;10457923;28;20221;-79
2021/10/04 06:48:24;;;;;;;4.40;1.47;;;;;10.20;100944.00;;;;10458027;28;20198;-77
2021/10/04 06:53:25;;;;;;;4.10;1.40;;;;;10.40;100959.00;;;;10425562;28;20280;-77
2021/10/04 06:58:29;;;;;;;6.20;1.53;;;;;10.60;100947.00;;;;10448860;28;20194;-77
2021/10/04 07:03:31;;;;;;;5.20;1.97;;;;;10.90;100965.00;;;;10463271;28;20194;-77
2021/10/04 07:08:34;;;;;;;8.77;1.77;;;;;11.30;100978.00;;;;10456935;28;20249;-76
2021/10/04 07:13:36;;;;;;;13.47;2.53;;;;;11.50;100990.00;;;;10456609;28;20548;-77
2021/10/04 07:18:39;;;;;;;5.93;1.60;;;;;11.80;101004.00;;;;10424239;28;20197;-76
2021/10/04 07:23:44;;;;;;;3.97;1.70;;;;;12.00;100996.00;;;;10416722;28;20190;-77
2021/10/04 07:28:46;;;;;;;4.40;1.83;;;;;12.20;101012.00;;;;10446623;28;20260;-77
2021/10/04 07:33:48;;;;;;;5.07;1.73;;;;;12.40;101007.00;;;;10424433;28;20300;-78
2021/10/04 07:38:50;;;;;;;4.27;1.47;;;;;12.60;101014.00;;;;10424344;28;20221;-76
2021/10/04 07:43:51;;;;;;;6.17;1.73;;;;;12.80;101009.00;;;;10391295;28;20256;-76
2021/10/04 07:48:57;;;;;;;3.80;1.47;;;;;13.00;101007.00;;;;10423030;28;20240;-76
2021/10/04 07:53:59;;;;;;;6.70;1.73;;;;;13.20;101013.00;;;;10413985;28;20217;-76
2021/10/04 07:59:01;;;;;;;10.53;2.50;;;;;13.50;101012.00;;;;10421582;28;20198;-76
2021/10/04 08:04:04;;;;;;;13.00;2.10;;;;;13.70;101009.00;;;;10431386;28;20197;-76
2021/10/04 08:09:06;;;;;;;12.27;2.00;;;;;14.00;100996.00;;;;10430547;28;20205;-76
2021/10/04 08:14:08;;;;;;;7.40;1.50;;;;;14.30;100972.00;;;;10447505;28;20242;-77
2021/10/04 08:19:10;;;;;;;6.00;1.77;;;;;14.80;100959.00;;;;10464340;28;20198;-77
2021/10/04 08:24:12;;;;;;;3.72;1.20;;;;;15.20;100947.00;;;;10422863;28;20613;-77
2021/10/04 08:29:14;;;;;;;5.15;1.30;;;;;15.60;100957.00;;;;10423393;28;20187;-76
2021/10/04 08:34:16;;;;;;;8.80;2.55;;;;;15.90;100952.00;;;;10422280;28;20264;-77
2021/10/04 08:39:18;;;;;;;5.72;1.30;;;;;16.20;100956.00;;;;10406874;28;20224;-77
2021/10/04 08:44:20;;;;;;;2.58;1.27;;;;;16.50;100963.00;;;;10405957;28;20194;-78
2021/10/04 08:49:23;;;;;;;3.72;1.40;;;;;16.70;100962.00;;;;10423057;28;20539;-78
2021/10/04 08:54:25;;;;;;;5.80;1.42;;;;;16.90;100959.00;;;;10406309;28;20215;-78
2021/10/04 08:59:27;;;;;;;5.40;1.33;;;;;17.00;100956.00;;;;10438294;28;20276;-78
2021/10/04 09:04:30;;;;;;;5.53;1.48;;;;;17.20;100962.00;;;;10483156;28;20298;-77
2021/10/04 09:09:32;;;;;;;4.82;1.40;;;;;17.40;100967.00;;;;10446563;28;20198;-77
2021/10/04 09:14:53;;;;;;;4.93;1.25;;;;;17.70;100965.00;;;;10429731;28;20723;-77
2021/10/04 09:19:55;;;;;;;5.63;1.30;;;;;17.80;100965.00;;;;10467610;28;20199;-78
2021/10/04 09:24:57;;;;;;;5.88;1.42;;;;;18.10;100967.00;;;;10439175;28;20187;-78
2021/10/04 09:30:02;;;;;;;4.05;1.05;;;;;18.20;100963.00;;;;10490674;28;20201;-77
2021/10/04 09:35:21;;;;;;;5.50;1.10;;;;;18.40;100959.00;;;;10520415;28;20622;-78
2021/10/04 09:40:25;;;;;;;6.78;1.80;;;;;18.70;100970.00;;;;10428992;28;20215;-78
2021/10/04 09:45:27;;;;;;;2.88;1.00;;;;;18.80;100985.00;;;;10445459;28;20194;-78
2021/10/04 09:50:30;;;;;;;7.20;1.35;;;;;18.90;100998.00;;;;10462251;28;20202;-78
2021/10/04 09:55:34;;;;;;;5.32;1.13;;;;;18.90;101018.00;;;;10431562;28;20263;-78
2021/10/04 10:00:45;;;;;;;5.35;1.40;;;;;19.20;101015.00;;;;10427073;28;20252;-77
2021/10/04 10:05:55;;;;;;;5.38;1.20;;;;;19.70;101015.00;;;;10404014;28;20249;-78
2021/10/04 10:11:00;;;;;;;6.32;0.98;;;;;20.20;101003.00;;;;10429142;28;20191;-78
2021/10/04 10:16:21;;;;;;;6.00;1.38;;;;;20.00;101019.00;;;;10436824;28;20551;-78
2021/10/04 10:21:29;;;;;;;9.52;1.42;;;;;19.80;101026.00;;;;10397963;28;20193;-78
2021/10/04 10:26:49;;;;;;;4.85;1.15;;;;;20.40;101032.00;;;;10428467;28;20186;-78
2021/10/04 10:31:55;;;;;;;4.45;1.35;;;;;20.70;101031.00;;;;10427732;28;20207;-78
2021/10/04 10:37:33;;;;;;;6.20;1.60;;;;;20.70;101038.00;;;;10428748;28;20205;-78
2021/10/04 10:42:43;;;;;;;5.85;1.40;;;;;20.80;101033.00;;;;10403170;28;20234;-78
2021/10/04 10:47:45;;;;;;;9.10;1.48;;;;;20.30;101037.00;;;;10428661;28;20178;-77
2021/10/04 10:53:01;;;;;;;5.68;1.42;;;;;21.20;101027.00;;;;10428348;28;20202;-78
2021/10/04 10:58:16;;;;;;;6.15;1.60;;;;;21.60;101044.00;;;;10440795;28;20193;-77
2021/10/04 11:03:20;;;;;;;4.13;1.20;;;;;21.70;101038.00;;;;10469404;28;20197;-77
2021/10/04 11:08:28;;;;;;;5.47;1.17;;;;;21.10;101039.00;;;;10477840;28;20206;-78
2021/10/04 11:13:35;;;;;;;7.07;1.55;;;;;21.70;101032.00;;;;10441378;28;20202;-78
2021/10/04 11:18:44;;;;;;;6.90;1.42;;;;;21.10;101035.00;;;;10459653;28;20190;-77
2021/10/04 11:23:48;;;;;;;6.28;1.25;;;;;21.70;101017.00;;;;10443537;28;20248;-77
2021/10/04 11:29:01;;;;;;;3.05;1.00;;;;;21.30;101036.00;;;;10478770;28;20709;-78
2021/10/04 11:34:08;;;;;;;4.35;1.10;;;;;22.00;101019.00;;;;10499376;28;20259;-78
2021/10/04 11:39:19;;;;;;;5.28;1.05;;;;;22.00;101023.00;;;;10460142;28;20201;-78
2021/10/04 11:44:26;;;;;;;6.45;1.77;;;;;20.80;101022.00;;;;10418383;28;20218;-78
2021/10/04 11:49:34;;;;;;;6.32;1.10;;;;;21.30;101014.00;;;;10435028;28;20198;-78
2021/10/04 11:54:54;;;;;;;6.07;1.30;;;;;21.40;101006.00;;;;10434059;28;20229;-78
2021/10/04 11:59:58;;;;;;;4.50;1.13;;;;;21.80;101006.00;;;;10490715;28;20200;-78
2021/10/04 12:05:16;;;;;;;4.45;1.00;;;;;22.10;101008.00;;;;10481205;28;20190;-78
2021/10/04 12:10:17;;;;;;;3.95;1.00;;;;;22.00;101011.00;;;;10441824;28;20197;-78
2021/10/04 12:15:27;;;;;;;8.23;1.50;;;;;21.90;101001.00;;;;10426193;28;20199;-78
2021/10/04 12:20:29;;;;;;;3.10;1.25;;;;;22.30;101005.00;;;;10459301;28;20240;-79
2021/10/04 12:25:32;;;;;;;3.75;1.27;;;;;21.80;100997.00;;;;10442516;28;20194;-78
2021/10/04 12:30:41;;;;;;;7.07;1.20;;;;;22.00;101006.00;;;;10413722;28;20244;-78
2021/10/04 12:35:43;;;;;;;7.82;1.33;;;;;21.80;101004.00;;;;10442908;28;20218;-78
2021/10/04 12:40:49;;;;;;;5.03;1.45;;;;;21.50;101006.00;;;;10412021;28;20229;-78
2021/10/04 12:45:53;;;;;;;3.08;1.10;;;;;21.40;100997.00;;;;10428234;28;20186;-78
2021/10/04 12:51:11;;;;;;;3.35;1.00;;;;;20.80;100993.00;;;;10449614;28;20726;-78
2021/10/04 12:56:21;;;;;;;8.20;1.33;;;;;20.60;101000.00;;;;10426178;28;20215;-78
2021/10/04 13:01:23;;;;;;;5.25;1.27;;;;;21.20;100989.00;;;;10425091;28;20210;-78
2021/10/04 13:06:27;;;;;;;4.35;0.93;;;;;21.20;100991.00;;;;10407777;28;20195;-78
2021/10/04 13:11:30;;;;;;;5.18;1.13;;;;;21.10;100972.00;;;;10444263;28;20248;-78
2021/10/04 13:16:32;;;;;;;4.25;0.90;;;;;21.00;100985.00;;;;10448776;28;20218;-78
2021/10/04 13:21:35;;;;;;;5.13;1.67;;;;;20.80;100971.00;;;;10432077;28;20681;-78
2021/10/04 13:26:37;;;;;;;3.83;0.93;;;;;20.90;100971.00;;;;10448853;28;20253;-79
2021/10/04 13:31:40;;;;;;;4.68;1.20;;;;;20.60;100979.00;;;;10447770;28;20191;-78
2021/10/04 13:36:42;;;;;;;2.85;0.98;;;;;21.20;100981.00;;;;10446879;28;20685;-79
2021/10/04 13:41:44;;;;;;;4.45;1.45;;;;;20.90;100979.00;;;;10430677;28;20249;-78
2021/10/04 13:46:46;;;;;;;10.40;1.40;;;;;20.30;100970.00;;;;10447656;28;20197;-78
2021/10/04 13:51:48;;;;;;;5.30;1.02;;;;;19.80;100978.00;;;;10462959;28;20226;-78
2021/10/04 13:56:50;;;;;;;5.40;0.90;;;;;19.90;100960.00;;;;10481059;28;20252;-78
2021/10/04 14:01:52;;;;;;;5.57;1.30;;;;;20.00;100963.00;;;;10487780;28;20561;-78
2021/10/04 14:07:04;;;;;;;5.00;1.38;;;;;20.00;100968.00;;;;10452670;28;20237;-78
2021/10/04 14:12:06;;;;;;;2.72;0.80;;;;;20.30;100963.00;;;;10420965;28;20655;-78
2021/10/04 14:17:08;;;;;;;3.65;1.02;;;;;20.50;100962.00;;;;10433802;28;20210;-78
2021/10/04 14:22:10;;;;;;;5.80;1.00;;;;;19.50;100972.00;;;;10444267;28;20595;-77
2021/10/04 14:27:11;;;;;;;5.35;1.00;;;;;19.90;100951.00;;;;10417883;28;20221;-78
2021/10/04 14:32:14;;;;;;;3.00;1.00;;;;;20.10;100967.00;;;;10485050;28;20190;-78
2021/10/04 14:37:16;;;;;;;3.20;1.00;;;;;19.40;100958.00;;;;10482754;28;20209;-78
2021/10/04 14:42:18;;;;;;;5.53;1.23;;;;;19.20;100955.00;;;;10468178;28;20217;-78
2021/10/04 14:47:20;;;;;;;4.97;1.08;;;;;19.00;100959.00;;;;10453131;28;20248;-77
2021/10/04 14:52:23;;;;;;;4.00;0.90;;;;;18.50;100958.00;;;;10427316;28;20228;-78
2021/10/04 14:57:26;;;;;;;8.85;1.25;;;;;18.60;100944.00;;;;10467851;28;20229;-77
2021/10/04 15:02:28;;;;;;;4.50;1.45;;;;;18.50;100950.00;;;;10453057;28;20190;-78
2021/10/04 15:07:30;;;;;;;4.10;0.93;;;;;18.30;100947.00;;;;10456911;28;20265;-77
2021/10/04 15:12:32;;;;;;;8.30;2.13;;;;;17.90;100948.00;;;;10444789;28;20191;-78
2021/10/04 15:17:35;;;;;;;4.32;1.05;;;;;17.90;100952.00;;;;10444232;28;20241;-78
2021/10/04 15:22:37;;;;;;;3.83;1.38;;;;;17.80;100947.00;;;;10459962;28;20564;-78
2021/10/04 15:27:39;;;;;;;5.43;0.98;;;;;18.00;100946.00;;;;10459679;28;20195;-78
2021/10/04 15:32:40;;;;;;;4.43;0.80;;;;;17.80;100946.00;;;;10440116;28;20198;-78
2021/10/04 15:37:42;;;;;;;3.80;0.90;;;;;17.40;100947.00;;;;10427915;28;20206;-78
2021/10/04 15:42:46;;;;;;;2.33;0.70;;;;;17.10;100949.00;;;;10434274;28;20685;-78
2021/10/04 15:47:48;;;;;;;5.05;0.90;;;;;17.00;100943.00;;;;10478869;28;20250;-78
2021/10/04 15:52:51;;;;;;;3.40;0.63;;;;;17.00;100947.00;;;;10459115;28;20289;-78
2021/10/04 15:57:53;;;;;;;6.25;0.80;;;;;16.90;100942.00;;;;10471803;28;20302;-78
2021/10/04 16:02:55;;;;;;;4.40;0.70;;;;;16.80;100936.00;;;;10478223;28;20216;-78
2021/10/04 16:08:02;;;;;;;5.47;0.80;;;;;16.70;100940.00;;;;10466408;28;20731;-78
2021/10/04 16:13:04;;;;;;;3.47;1.33;;;;;16.70;100929.00;;;;10439910;28;20236;-77
2021/10/04 16:18:07;;;;;;;3.25;0.93;;;;;16.70;100930.00;;;;10423964;28;20623;-78
2021/10/04 16:23:10;;;;;;;4.70;0.90;;;;;16.50;100936.00;;;;10430544;28;20190;-78
2021/10/04 16:28:13;;;;;;;3.80;0.80;;;;;16.30;100933.00;;;;10469246;28;20212;-78
2021/10/04 16:33:19;;;;;;;5.88;1.05;;;;;16.00;100927.00;;;;10431088;28;20247;-78
2021/10/04 16:38:21;;;;;;;3.13;1.10;;;;;16.00;100925.00;;;;10447238;28;21040;-78
2021/10/04 16:43:23;;;;;;;6.32;1.70;;;;;15.90;100927.00;;;;10464328;28;20228;-78
2021/10/04 16:48:25;;;;;;;3.63;1.50;;;;;15.70;100918.00;;;;10448587;28;20190;-77
2021/10/04 16:53:28;;;;;;;8.05;1.70;;;;;15.50;100920.00;;;;10429954;28;20194;-78
2021/10/04 16:58:30;;;;;;;2.27;1.00;;;;;15.30;100928.00;;;;10452246;28;20206;-78
2021/10/04 17:03:32;;;;;;;3.65;1.10;;;;;15.20;100915.00;;;;10412836;28;20190;-78
2021/10/04 17:08:36;;;;;;;7.72;1.25;;;;;15.20;100923.00;;;;10409460;28;20190;-78
2021/10/04 17:13:40;;;;;;;7.45;1.58;;;;;15.20;100921.00;;;;10447973;28;20611;-78
2021/10/04 17:18:42;;;;;;;5.93;1.50;;;;;15.10;100915.00;;;;10418780;28;20685;-78
2021/10/04 17:23:46;;;;;;;6.23;1.27;;;;;15.00;100915.00;;;;10460303;28;20216;-77
2021/10/04 17:28:52;;;;;;;6.03;1.50;;;;;14.90;100921.00;;;;10446985;28;20179;-78
2021/10/04 17:33:53;;;;;;;5.23;1.53;;;;;14.70;100915.00;;;;10454965;28;20520;-78
2021/10/04 17:38:55;;;;;;;5.00;1.73;;;;;14.50;100920.00;;;;10429489;28;20719;-77
2021/10/04 17:43:57;;;;;;;11.97;1.70;;;;;14.30;100910.00;;;;10407774;28;20217;-78
2021/10/04 17:49:00;;;;;;;4.10;1.33;;;;;14.20;100907.00;;;;10441155;28;20566;-78
2021/10/04 17:54:03;;;;;;;9.03;1.60;;;;;14.00;100901.00;;;;10445442;28;20225;-78
2021/10/04 17:59:05;;;;;;;7.13;2.70;;;;;13.90;100901.00;;;;10411416;28;20614;-77
2021/10/04 18:04:07;;;;;;;6.63;2.60;;;;;13.80;100904.00;;;;10416916;28;20657;-78
2021/10/04 18:09:09;;;;;;;5.73;1.70;;;;;13.70;100905.00;;;;10428422;28;20247;-77
2021/10/04 18:14:11;;;;;;;5.50;2.30;;;;;13.60;100901.00;;;;10444955;28;20194;-77
2021/10/04 18:19:13;;;;;;;5.37;2.63;;;;;13.50;100896.00;;;;10428060;28;20221;-77
2021/10/04 18:24:15;;;;;;;4.30;2.27;;;;;13.40;100891.00;;;;10410738;28;20260;-77
2021/10/04 18:29:17;;;;;;;6.63;2.03;;;;;13.50;100902.00;;;;10451472;28;20210;-77
2021/10/04 18:34:19;;;;;;;5.63;1.70;;;;;13.60;100900.00;;;;10476447;28;20649;-77
2021/10/04 18:39:21;;;;;;;9.53;1.50;;;;;13.60;100885.00;;;;10427990;28;20623;-78
2021/10/04 18:44:23;;;;;;;6.20;1.60;;;;;13.60;100899.00;;;;10420443;28;20543;-78
2021/10/04 18:49:25;;;;;;;8.17;2.20;;;;;13.50;100896.00;;;;10422697;28;20218;-78
2021/10/04 18:54:27;;;;;;;5.83;2.20;;;;;13.50;100891.00;;;;10439724;28;20654;-78
2021/10/04 18:59:30;;;;;;;4.97;1.90;;;;;13.50;100887.00;;;;10440433;28;20240;-78
2021/10/04 19:04:32;;;;;;;9.47;2.03;;;;;13.50;100893.00;;;;10435619;28;20198;-78
2021/10/04 19:09:34;;;;;;;10.30;2.60;;;;;13.40;100891.00;;;;10458756;28;20210;-79
2021/10/04 19:14:36;;;;;;;7.33;1.97;;;;;13.40;100890.00;;;;10446565;28;20244;-78
2021/10/04 19:19:37;;;;;;;9.23;1.87;;;;;13.30;100884.00;;;;10426733;28;20210;-77
2021/10/04 19:24:39;;;;;;;10.63;2.03;;;;;13.20;100876.00;;;;10432941;28;20244;-78
2021/10/04 19:29:46;;;;;;;6.70;1.97;;;;;13.20;100874.00;;;;10418887;28;20190;-78
2021/10/04 19:34:48;;;;;;;5.63;1.73;;;;;13.20;100872.00;;;;10424763;28;20214;-79
2021/10/04 19:39:52;;;;;;;4.17;1.93;;;;;13.20;100873.00;;;;10410155;28;20222;-79
2021/10/04 19:44:54;;;;;;;6.87;1.57;;;;;13.20;100863.00;;;;10463779;28;20187;-78
2021/10/04 19:50:00;;;;;;;8.33;1.87;;;;;13.20;100863.00;;;;10441460;28;20210;-79
2021/10/04 19:55:10;;;;;;;5.20;2.20;;;;;13.20;100866.00;;;;10450964;28;20300;-79
2021/10/04 20:00:13;;;;;;;6.47;2.30;;;;;13.20;100858.00;;;;10465580;28;20201;-78
2021/10/04 20:05:16;;;;;;;6.17;1.57;;;;;13.20;100851.00;;;;10459554;28;20286;-79
2021/10/04 20:10:18;;;;;;;5.40;1.93;;;;;13.10;100839.00;;;;10458357;28;20272;-77
2021/10/04 20:15:20;;;;;;;7.50;1.60;;;;;13.10;100847.00;;;;10416337;28;20677;-78
2021/10/04 20:20:21;;;;;;;6.13;1.90;;;;;13.00;100836.00;;;;10447979;28;20194;-78
2021/10/04 20:25:25;;;;;;;4.57;2.00;;;;;12.90;100833.00;;;;10438924;28;20228;-78
2021/10/04 20:30:27;;;;;;;4.40;1.93;;;;;12.90;100839.00;;;;10475942;28;20195;-79
2021/10/04 20:35:29;;;;;;;6.20;1.50;;;;;12.80;100834.00;;;;10446629;28;20214;-78
2021/10/04 20:40:31;;;;;;;6.10;1.87;;;;;12.80;100833.00;;;;10428512;28;20214;-78
2021/10/04 20:45:33;;;;;;;5.80;1.87;;;;;12.70;100831.00;;;;10435682;28;20190;-79
2021/10/04 20:50:35;;;;;;;3.60;1.63;;;;;12.60;100823.00;;;;10413266;28;20237;-78
2021/10/04 20:55:37;;;;;;;6.27;2.07;;;;;12.60;100819.00;;;;10462198;28;20227;-78
2021/10/04 21:00:39;;;;;;;5.33;1.73;;;;;12.60;100809.00;;;;10451816;28;20205;-78
2021/10/04 21:05:51;;;;;;;3.87;1.47;;;;;12.60;100808.00;;;;10435180;28;20193;-78
2021/10/04 21:10:53;;;;;;;8.60;1.77;;;;;12.60;100810.00;;;;10436439;28;20198;-78
2021/10/04 21:15:55;;;;;;;7.33;1.97;;;;;12.60;100797.00;;;;10477739;28;20224;-78
2021/10/04 21:20:57;;;;;;;4.33;1.60;;;;;12.50;100796.00;;;;10458687;28;20199;-78
2021/10/04 21:26:00;;;;;;;10.10;1.90;;;;;12.50;100779.00;;;;10440989;28;20194;-78
2021/10/04 21:31:04;;;;;;;2.93;1.27;;;;;12.50;100781.00;;;;10425547;28;20607;-77
2021/10/04 21:36:06;;;;;;;12.23;1.60;;;;;12.50;100784.00;;;;10443235;28;20677;-79
2021/10/04 21:41:08;;;;;;;5.70;1.30;;;;;12.50;100787.00;;;;10425054;28;20221;-78
2021/10/04 21:46:10;;;;;;;2.20;1.27;;;;;12.50;100778.00;;;;10439836;28;20281;-78
2021/10/04 21:51:12;;;;;;;5.57;1.30;;;;;12.40;100761.00;;;;10401733;28;1143400;-78
2021/10/04 21:56:15;;;;;;;4.53;1.27;;;;;12.40;100758.00;;;;10446409;28;20209;-78
2021/10/04 22:01:23;;;;;;;5.67;1.13;;;;;12.40;100761.00;;;;10445015;28;20721;-78
2021/10/04 22:11:43;;;;;;;4.40;1.60;;;;;12.30;100749.00;;;;10429796;28;20209;-78
2021/10/04 22:16:45;;;;;;;2.33;1.07;;;;;12.30;100748.00;;;;10410102;28;20266;-78
2021/10/04 22:21:47;;;;;;;5.63;1.27;;;;;12.20;100727.00;;;;10451515;28;20202;-78
2021/10/04 22:26:49;;;;;;;6.77;1.50;;;;;12.10;100712.00;;;;10416640;28;20709;-78
2021/10/04 22:31:51;;;;;;;4.63;0.90;;;;;12.10;100708.00;;;;10453669;28;20578;-78
2021/10/04 22:36:53;;;;;;;3.87;1.47;;;;;12.00;100691.00;;;;10438053;28;20238;-78
2021/10/04 22:41:55;;;;;;;3.53;1.27;;;;;12.00;100681.00;;;;10427986;28;20305;-78
2021/10/04 22:46:57;;;;;;;4.50;1.33;;;;;12.10;100672.00;;;;10407622;28;20407;-78
2021/10/04 22:51:59;;;;;;;4.37;1.13;;;;;12.10;100680.00;;;;10405244;28;20252;-78
2021/10/04 22:57:02;;;;;;;5.23;1.30;;;;;12.10;100667.00;;;;10428017;28;20206;-78
2021/10/04 23:02:04;;;;;;;2.80;0.93;;;;;12.00;100667.00;;;;10444017;28;20221;-78
2021/10/04 23:07:06;;;;;;;4.03;1.30;;;;;12.00;100659.00;;;;10426096;28;20649;-77
2021/10/04 23:12:08;;;;;;;4.23;1.07;;;;;11.90;100645.00;;;;10410468;28;20244;-78
2021/10/04 23:17:11;;;;;;;2.40;0.87;;;;;11.80;100645.00;;;;10393772;28;20210;-78
2021/10/04 23:22:13;;;;;;;5.30;1.43;;;;;11.80;100634.00;;;;10442782;28;20255;-78
2021/10/04 23:27:15;;;;;;;6.70;1.27;;;;;11.70;100641.00;;;;10409313;28;20217;-78
2021/10/04 23:32:17;;;;;;;2.70;1.13;;;;;11.70;100621.00;;;;10457859;28;20256;-78
2021/10/04 23:37:19;;;;;;;4.93;1.47;;;;;11.70;100632.00;;;;10441841;28;20301;-78
2021/10/04 23:42:21;;;;;;;4.53;0.90;;;;;11.70;100613.00;;;;10425502;28;20206;-78
2021/10/04 23:47:23;;;;;;;2.80;1.10;;;;;11.60;100614.00;;;;10442635;28;20248;-78
2021/10/04 23:52:25;;;;;;;4.57;1.30;;;;;11.60;100608.00;;;;10459481;28;20255;-77
2021/10/04 23:57:27;;;;;;;4.27;0.90;;;;;11.60;100603.00;;;;10424916;28;20239;-78
